Time;durP1;ratioP1;P1;durP2;ratioP2;P2;SDS_P1;SDS_P2;PMS_P1;PMS_P2;Temp;Humidity;BMP_temperature;BMP_pressure;BME280_temperature;BME280_humidity;BME280_pressure;Samples;Min_cycle;Max_cycle;Signal;HPM_P1;HPM_P2
2024/03/12 00:04:37;;;;;;;81.43;36.23;;;;;7.00;100537.00;;;;9974014;29;20285;-83
2024/03/12 00:09:38;;;;;;;73.10;35.03;;;;;6.90;100557.00;;;;9963573;29;20313;-83
2024/03/12 00:14:40;;;;;;;80.47;35.93;;;;;7.00;100555.00;;;;9990056;29;20316;-83
2024/03/12 00:19:41;;;;;;;71.20;33.43;;;;;6.90;100566.00;;;;9977440;29;20289;-83
2024/03/12 00:24:44;;;;;;;76.77;34.93;;;;;6.90;100568.00;;;;9972682;29;20234;-82
2024/03/12 00:29:45;;;;;;;73.60;33.23;;;;;6.90;100573.00;;;;9981507;29;20234;-83
2024/03/12 00:34:46;;;;;;;76.00;35.23;;;;;6.90;100578.00;;;;9991513;29;20226;-85
2024/03/12 00:39:48;;;;;;;76.07;33.77;;;;;6.90;100586.00;;;;9977284;29;20548;-86
2024/03/12 00:44:49;;;;;;;81.77;35.63;;;;;6.90;100597.00;;;;9978992;29;20699;-87
2024/03/12 00:49:50;;;;;;;70.83;31.83;;;;;6.90;100601.00;;;;9999015;29;20250;-85
2024/03/12 00:54:52;;;;;;;74.67;36.37;;;;;6.90;100605.00;;;;9972615;29;20237;-85
2024/03/12 00:59:53;;;;;;;78.83;35.73;;;;;6.90;100617.00;;;;9989717;29;20233;-86
2024/03/12 01:04:54;;;;;;;72.33;33.57;;;;;6.80;100609.00;;;;9961212;29;20241;-86
2024/03/12 01:09:55;;;;;;;65.43;32.13;;;;;6.80;100615.00;;;;9980662;29;20226;-84
2024/03/12 01:14:57;;;;;;;71.93;32.90;;;;;6.80;100626.00;;;;9967079;29;20257;-85
2024/03/12 01:19:58;;;;;;;59.33;30.33;;;;;6.80;100633.00;;;;9967517;29;20339;-85
2024/03/12 01:24:59;;;;;;;74.37;34.10;;;;;6.70;100634.00;;;;9970651;29;20276;-85
2024/03/12 01:30:06;;;;;;;61.50;32.23;;;;;6.70;100640.00;;;;9957310;29;20748;-86
2024/03/12 01:35:08;;;;;;;69.43;31.83;;;;;6.70;100647.00;;;;9976941;29;20234;-85
2024/03/12 01:40:19;;;;;;;62.50;31.37;;;;;6.70;100651.00;;;;9956778;29;20769;-80
2024/03/12 01:45:22;;;;;;;58.57;28.67;;;;;6.70;100655.00;;;;9985475;29;20266;-81
2024/03/12 01:50:25;;;;;;;66.47;30.30;;;;;6.70;100653.00;;;;9957376;29;20229;-81
2024/03/12 01:55:27;;;;;;;69.50;29.47;;;;;6.70;100649.00;;;;9995618;29;20868;-81
2024/03/12 02:00:32;;;;;;;60.77;29.63;;;;;6.70;100662.00;;;;9954337;29;20325;-81
2024/03/12 02:05:34;;;;;;;65.83;31.70;;;;;6.70;100656.00;;;;9999339;29;20915;-80
2024/03/12 02:10:35;;;;;;;67.17;31.00;;;;;6.70;100664.00;;;;9984035;29;20245;-81
2024/03/12 02:15:36;;;;;;;73.57;31.90;;;;;6.70;100670.00;;;;9993568;29;20285;-80
2024/03/12 02:20:38;;;;;;;70.03;32.37;;;;;6.70;100667.00;;;;9967122;29;20225;-81
2024/03/12 02:25:39;;;;;;;61.67;32.23;;;;;6.70;100674.00;;;;9973200;29;20268;-81
2024/03/12 02:30:40;;;;;;;71.90;32.10;;;;;6.70;100684.00;;;;9950112;29;20313;-80
2024/03/12 02:35:41;;;;;;;63.20;30.27;;;;;6.70;100680.00;;;;9959794;29;20291;-81
2024/03/12 02:40:42;;;;;;;62.77;31.47;;;;;6.70;100685.00;;;;9975874;29;20233;-81
2024/03/12 02:45:45;;;;;;;68.17;32.57;;;;;6.70;100684.00;;;;9966200;29;20245;-81
2024/03/12 02:50:47;;;;;;;68.83;34.93;;;;;6.70;100687.00;;;;9949373;29;20279;-81
2024/03/12 02:55:48;;;;;;;66.20;30.90;;;;;6.70;100683.00;;;;9975791;29;20317;-80
2024/03/12 03:00:50;;;;;;;62.03;30.63;;;;;6.70;100682.00;;;;9949037;29;21020;-83
2024/03/12 03:05:52;;;;;;;66.47;31.53;;;;;6.60;100685.00;;;;9997661;29;20229;-83
2024/03/12 03:10:54;;;;;;;67.63;31.97;;;;;6.60;100695.00;;;;9970522;29;20257;-83
2024/03/12 03:15:55;;;;;;;72.33;31.50;;;;;6.60;100704.00;;;;9965207;29;20225;-84
2024/03/12 03:20:57;;;;;;;66.17;32.43;;;;;6.60;100706.00;;;;9966856;29;20234;-83
2024/03/12 03:25:58;;;;;;;68.13;32.27;;;;;6.60;100702.00;;;;9948965;29;20318;-83
2024/03/12 03:30:59;;;;;;;62.97;33.27;;;;;6.60;100697.00;;;;9971091;29;20742;-83
2024/03/12 03:36:03;;;;;;;68.13;30.60;;;;;6.60;100702.00;;;;9952568;29;20813;-83
2024/03/12 03:41:05;;;;;;;61.30;31.23;;;;;6.60;100724.00;;;;9950019;29;20261;-84
2024/03/12 03:46:06;;;;;;;68.80;33.23;;;;;6.70;100713.00;;;;9979576;29;20292;-83
2024/03/12 03:51:08;;;;;;;65.17;33.57;;;;;6.70;100708.00;;;;9967030;29;20237;-83
2024/03/12 03:56:15;;;;;;;75.57;33.87;;;;;6.70;100719.00;;;;9955911;29;20263;-83
2024/03/12 04:01:16;;;;;;;57.10;28.70;;;;;6.70;100723.00;;;;9959352;29;20234;-83
2024/03/12 04:06:21;;;;;;;63.67;31.47;;;;;6.70;100722.00;;;;9965435;29;20233;-84
2024/03/12 04:11:22;;;;;;;73.37;32.57;;;;;6.70;100735.00;;;;9962798;29;20320;-79
2024/03/12 04:16:27;;;;;;;69.13;34.20;;;;;6.70;100741.00;;;;9953464;29;20230;-78
2024/03/12 04:21:28;;;;;;;68.23;31.87;;;;;6.70;100749.00;;;;9959349;29;21111;-78
2024/03/12 04:26:29;;;;;;;65.83;30.77;;;;;6.60;100753.00;;;;9957861;29;20316;-78
2024/03/12 04:31:32;;;;;;;63.13;30.17;;;;;6.60;100751.00;;;;9950531;29;20872;-78
2024/03/12 04:36:34;;;;;;;57.47;29.63;;;;;6.60;100770.00;;;;9957492;29;20233;-78
2024/03/12 04:41:36;;;;;;;57.53;29.33;;;;;6.60;100766.00;;;;9974758;29;20233;-79
2024/03/12 04:46:42;;;;;;;55.33;28.37;;;;;6.60;100766.00;;;;9951433;29;20230;-78
2024/03/12 04:51:44;;;;;;;56.13;27.67;;;;;6.60;100775.00;;;;9957597;29;20232;-79
2024/03/12 04:56:46;;;;;;;56.97;28.53;;;;;6.60;100774.00;;;;10002180;29;20324;-78
2024/03/12 05:01:49;;;;;;;55.57;28.87;;;;;6.60;100792.00;;;;9966109;29;20756;-78
2024/03/12 05:06:50;;;;;;;67.13;29.60;;;;;6.60;100786.00;;;;9964718;29;20277;-79
2024/03/12 05:11:52;;;;;;;63.83;30.87;;;;;6.60;100796.00;;;;9972888;29;20233;-78
2024/03/12 05:16:54;;;;;;;62.23;30.20;;;;;6.60;100806.00;;;;9972423;29;20989;-79
2024/03/12 05:21:56;;;;;;;62.73;29.37;;;;;6.50;100801.00;;;;9986788;29;20280;-84
2024/03/12 05:26:59;;;;;;;67.27;30.97;;;;;6.40;100816.00;;;;9968308;29;20279;-84
2024/03/12 05:32:17;;;;;;;68.10;33.43;;;;;6.40;100816.00;;;;9976341;29;21023;-83
2024/03/12 05:37:28;;;;;;;69.40;31.60;;;;;6.40;100814.00;;;;9940632;29;20226;-85
2024/03/12 05:48:07;;;;;;;60.97;30.40;;;;;6.40;100821.00;;;;9965042;29;20300;-83
2024/03/12 05:53:09;;;;;;;81.60;36.50;;;;;6.40;100824.00;;;;9983221;29;20736;-83
2024/03/12 05:58:12;;;;;;;77.00;35.30;;;;;6.40;100838.00;;;;9965101;29;20226;-83
2024/03/12 06:03:14;;;;;;;80.13;35.83;;;;;6.40;100836.00;;;;9954676;29;20790;-84
2024/03/12 06:08:15;;;;;;;76.07;35.97;;;;;6.40;100837.00;;;;9954550;29;21251;-83
2024/03/12 06:13:17;;;;;;;75.70;33.80;;;;;6.40;100846.00;;;;9971811;29;20261;-84
2024/03/12 06:18:18;;;;;;;73.03;35.80;;;;;6.50;100857.00;;;;9952229;29;20328;-83
2024/03/12 06:23:21;;;;;;;70.80;35.60;;;;;6.60;100853.00;;;;9969449;29;20268;-83
2024/03/12 06:28:25;;;;;;;75.63;35.27;;;;;6.60;100862.00;;;;9950245;29;20253;-80
2024/03/12 06:33:26;;;;;;;77.77;36.43;;;;;6.60;100865.00;;;;9965017;29;20958;-79
2024/03/12 06:38:28;;;;;;;73.93;35.47;;;;;6.50;100870.00;;;;9959232;29;20241;-78
2024/03/12 06:43:29;;;;;;;78.13;37.30;;;;;6.50;100871.00;;;;9951320;29;20259;-78
2024/03/12 06:48:30;;;;;;;84.93;37.27;;;;;6.60;100878.00;;;;9959781;29;20238;-79
2024/03/12 06:53:31;;;;;;;78.07;37.53;;;;;6.70;100887.00;;;;9941116;29;20253;-78
2024/03/12 06:58:33;;;;;;;94.50;38.80;;;;;6.90;100887.00;;;;9998587;29;20611;-78
2024/03/12 07:03:39;;;;;;;80.73;38.63;;;;;7.00;100910.00;;;;9970592;29;20328;-78
2024/03/12 07:08:41;;;;;;;82.40;38.77;;;;;7.20;100910.00;;;;9959888;29;20229;-78
2024/03/12 07:13:43;;;;;;;87.50;39.47;;;;;7.20;100909.00;;;;9955700;29;20225;-79
2024/03/12 07:18:46;;;;;;;92.97;40.33;;;;;7.30;100919.00;;;;9958876;29;20229;-79
2024/03/12 07:23:49;;;;;;;73.20;37.77;;;;;7.30;100918.00;;;;9978990;29;20242;-80
2024/03/12 07:28:50;;;;;;;73.43;38.77;;;;;7.30;100918.00;;;;9995570;29;20257;-78
2024/03/12 07:33:51;;;;;;;81.33;37.17;;;;;7.30;100927.00;;;;9955238;29;20279;-78
2024/03/12 07:38:52;;;;;;;74.57;38.10;;;;;7.40;100926.00;;;;9969338;29;20711;-79
2024/03/12 07:43:54;;;;;;;81.40;39.03;;;;;7.50;100923.00;;;;9951640;29;20329;-79
2024/03/12 07:48:56;;;;;;;81.03;37.37;;;;;7.50;100925.00;;;;9972111;29;20232;-79
2024/03/12 07:53:59;;;;;;;81.47;38.20;;;;;7.60;100935.00;;;;9989359;29;20302;-79
2024/03/12 07:59:01;;;;;;;83.97;39.37;;;;;7.60;100942.00;;;;9965980;29;20221;-79
2024/03/12 08:04:03;;;;;;;84.80;39.00;;;;;7.60;100943.00;;;;9985290;29;20321;-79
2024/03/12 08:09:04;;;;;;;76.07;37.03;;;;;7.60;100948.00;;;;9968779;29;20294;-79
2024/03/12 08:14:06;;;;;;;74.53;36.93;;;;;7.60;100948.00;;;;9952319;29;20253;-79
2024/03/12 08:19:10;;;;;;;90.77;38.93;;;;;7.60;100946.00;;;;9963298;29;20225;-80
2024/03/12 08:24:11;;;;;;;74.67;36.20;;;;;7.60;100955.00;;;;9962557;29;20321;-79
2024/03/12 08:29:14;;;;;;;77.10;35.20;;;;;7.70;100950.00;;;;9955747;29;20224;-79
2024/03/12 08:34:15;;;;;;;63.90;34.80;;;;;7.90;100963.00;;;;9964806;29;20260;-79
2024/03/12 08:39:17;;;;;;;69.60;36.07;;;;;7.90;100954.00;;;;9975505;29;20603;-79
2024/03/12 08:44:18;;;;;;;64.77;35.80;;;;;7.90;100958.00;;;;9979851;29;20256;-79
2024/03/12 08:49:20;;;;;;;63.10;34.57;;;;;7.90;100961.00;;;;10009435;29;20262;-81
2024/03/12 08:54:21;;;;;;;70.20;35.47;;;;;7.90;100959.00;;;;9986189;29;20282;-81
2024/03/12 08:59:22;;;;;;;65.70;34.80;;;;;8.00;100965.00;;;;9972114;29;20230;-80
2024/03/12 09:04:24;;;;;;;60.57;32.03;;;;;8.00;100969.00;;;;9974969;29;20432;-81
2024/03/12 09:09:26;;;;;;;68.50;33.80;;;;;8.10;100970.00;;;;9973459;29;20943;-80
2024/03/12 09:14:27;;;;;;;56.20;30.60;;;;;8.10;100977.00;;;;9955108;29;20478;-80
2024/03/12 09:19:28;;;;;;;61.07;33.33;;;;;8.00;100965.00;;;;9944855;29;20274;-81
2024/03/12 09:24:30;;;;;;;61.00;32.47;;;;;8.00;100954.00;;;;9956908;29;20237;-80
2024/03/12 09:29:31;;;;;;;64.67;32.90;;;;;8.10;100959.00;;;;9986421;29;20321;-81
2024/03/12 09:34:36;;;;;;;66.03;33.83;;;;;8.40;100966.00;;;;9973000;29;20328;-80
2024/03/12 09:39:37;;;;;;;67.37;33.60;;;;;8.90;100979.00;;;;9969349;29;20233;-80
2024/03/12 09:44:39;;;;;;;67.57;34.40;;;;;9.60;100983.00;;;;9990705;29;20248;-80
2024/03/12 09:49:40;;;;;;;62.30;35.10;;;;;10.00;100977.00;;;;9963733;29;20260;-80
2024/03/12 09:54:42;;;;;;;73.23;36.93;;;;;10.40;100976.00;;;;9976003;29;20234;-81
2024/03/12 09:59:43;;;;;;;68.17;35.67;;;;;10.80;100974.00;;;;9995449;29;20707;-81
2024/03/12 10:04:48;;;;;;;57.77;28.30;;;;;11.20;100967.00;;;;9969447;29;20293;-79
2024/03/12 10:09:49;;;;;;;67.57;38.63;;;;;11.70;100958.00;;;;9973523;29;20233;-79
2024/03/12 10:14:52;;;;;;;66.87;38.67;;;;;11.60;100963.00;;;;9977597;29;20237;-79
2024/03/12 10:20:07;;;;;;;69.47;39.00;;;;;11.80;100951.00;;;;9979840;29;20232;-79
2024/03/12 10:25:11;;;;;;;69.03;37.43;;;;;12.00;100945.00;;;;9993864;29;20236;-79
2024/03/12 10:30:26;;;;;;;63.70;35.97;;;;;12.40;100942.00;;;;9978401;29;20233;-81
2024/03/12 10:35:27;;;;;;;68.90;38.73;;;;;12.30;100944.00;;;;9965938;29;20233;-80
2024/03/12 10:40:29;;;;;;;71.10;40.17;;;;;12.30;100944.00;;;;9978088;29;20253;-79
2024/03/12 10:45:31;;;;;;;67.47;38.60;;;;;12.10;100954.00;;;;9989294;29;20853;-79
2024/03/12 10:50:34;;;;;;;75.53;39.63;;;;;12.30;100948.00;;;;9939508;29;20313;-79
2024/03/12 10:55:36;;;;;;;59.17;36.77;;;;;12.80;100940.00;;;;9974924;29;20265;-80
2024/03/12 11:00:40;;;;;;;65.23;38.60;;;;;12.80;100932.00;;;;9961564;29;20226;-79
2024/03/12 11:05:43;;;;;;;66.17;38.27;;;;;12.90;100929.00;;;;9981414;29;20249;-79
2024/03/12 11:10:46;;;;;;;60.47;36.20;;;;;13.10;100930.00;;;;9968923;29;20304;-81
2024/03/12 11:15:47;;;;;;;63.27;36.00;;;;;13.20;100929.00;;;;9953744;29;20974;-80
2024/03/12 11:20:48;;;;;;;61.58;35.75;;;;;13.00;100921.00;;;;9995185;29;20924;-80
2024/03/12 11:25:49;;;;;;;62.93;37.50;;;;;12.90;100931.00;;;;9982356;29;20588;-80
2024/03/12 11:30:54;;;;;;;57.60;33.50;;;;;13.10;100931.00;;;;9965693;29;20226;-80
2024/03/12 11:35:56;;;;;;;45.83;29.37;;;;;13.30;100919.00;;;;9957794;29;20233;-80
2024/03/12 11:41:00;;;;;;;55.27;33.03;;;;;13.40;100912.00;;;;9966920;29;20935;-80
2024/03/12 11:46:04;;;;;;;48.85;31.63;;;;;13.50;100910.00;;;;9950914;29;20324;-80
2024/03/12 11:51:11;;;;;;;47.53;31.20;;;;;13.50;100914.00;;;;9944339;29;20233;-80
2024/03/12 11:56:18;;;;;;;43.60;28.05;;;;;12.90;100917.00;;;;9973767;29;20253;-80
2024/03/12 12:01:24;;;;;;;47.27;26.93;;;;;12.60;100924.00;;;;9966021;29;20701;-80
2024/03/12 12:06:26;;;;;;;38.57;24.97;;;;;12.20;100922.00;;;;9970264;29;20293;-80
2024/03/12 12:11:28;;;;;;;37.37;24.57;;;;;12.40;100905.00;;;;9991717;29;20446;-80
2024/03/12 12:16:29;;;;;;;43.53;26.57;;;;;12.10;100917.00;;;;9970884;29;20309;-80
2024/03/12 12:21:31;;;;;;;36.87;24.07;;;;;11.90;100906.00;;;;9970965;29;20785;-80
2024/03/12 12:26:33;;;;;;;38.37;24.70;;;;;11.40;100910.00;;;;9982248;29;20237;-80
2024/03/12 12:31:35;;;;;;;42.27;26.37;;;;;11.70;100902.00;;;;9950604;29;21197;-81
2024/03/12 12:36:40;;;;;;;38.70;23.97;;;;;11.50;100904.00;;;;9967334;29;20313;-80
2024/03/12 12:41:45;;;;;;;37.63;22.90;;;;;11.50;100905.00;;;;9956594;29;20237;-81
2024/03/12 12:46:47;;;;;;;36.60;21.60;;;;;11.30;100903.00;;;;9942110;29;20258;-81
2024/03/12 12:51:49;;;;;;;34.47;19.93;;;;;10.60;100896.00;;;;9961499;29;20273;-80
2024/03/12 12:56:51;;;;;;;40.03;23.90;;;;;10.30;100894.00;;;;9957547;29;20320;-80
2024/03/12 13:01:52;;;;;;;38.63;20.50;;;;;10.60;100896.00;;;;9953176;29;20660;-81
2024/03/12 13:06:55;;;;;;;35.33;21.30;;;;;10.90;100890.00;;;;9980286;29;20228;-81
2024/03/12 13:12:01;;;;;;;31.40;19.47;;;;;11.10;100887.00;;;;9956499;29;20241;-80
2024/03/12 13:17:03;;;;;;;36.83;20.03;;;;;11.00;100882.00;;;;9965389;29;20237;-81
2024/03/12 13:22:04;;;;;;;26.23;18.10;;;;;10.80;100876.00;;;;9970549;29;20237;-79
2024/03/12 13:27:16;;;;;;;27.83;17.43;;;;;10.60;100868.00;;;;9980066;29;20359;-85
2024/03/12 13:32:17;;;;;;;29.63;18.57;;;;;10.50;100870.00;;;;9967818;29;20221;-83
2024/03/12 13:37:19;;;;;;;29.30;18.73;;;;;10.50;100865.00;;;;9984944;29;20294;-84
2024/03/12 13:42:20;;;;;;;25.63;16.60;;;;;10.50;100861.00;;;;9951040;29;20599;-86
2024/03/12 13:47:21;;;;;;;29.73;19.30;;;;;10.50;100855.00;;;;9971039;29;21008;-85
2024/03/12 13:52:24;;;;;;;30.87;18.70;;;;;10.50;100844.00;;;;9985088;29;20277;-86
2024/03/12 13:57:25;;;;;;;29.57;17.73;;;;;10.40;100847.00;;;;9999897;29;20237;-86
2024/03/12 14:02:27;;;;;;;23.47;16.57;;;;;10.40;100849.00;;;;9975717;29;20230;-88
2024/03/12 14:07:29;;;;;;;26.07;15.57;;;;;10.30;100844.00;;;;9972257;29;20222;-85
2024/03/12 14:12:30;;;;;;;25.47;16.43;;;;;10.30;100852.00;;;;9979808;29;20719;-86
2024/03/12 14:17:31;;;;;;;26.87;15.60;;;;;10.10;100835.00;;;;9978956;29;20233;-84
2024/03/12 14:22:33;;;;;;;22.30;15.20;;;;;10.20;100833.00;;;;9989933;29;20281;-87
2024/03/12 14:27:34;;;;;;;23.87;15.00;;;;;10.20;100833.00;;;;9969862;29;20772;-87
2024/03/12 14:32:37;;;;;;;21.50;14.53;;;;;10.10;100830.00;;;;9967043;29;20245;-87
2024/03/12 14:37:41;;;;;;;23.57;15.07;;;;;10.10;100828.00;;;;9984325;29;20230;-79
2024/03/12 14:42:43;;;;;;;23.67;15.30;;;;;9.80;100826.00;;;;9953480;29;20608;-81
2024/03/12 14:47:45;;;;;;;24.63;15.67;;;;;9.70;100820.00;;;;9994398;29;20287;-80
2024/03/12 14:52:46;;;;;;;26.10;14.20;;;;;9.60;100810.00;;;;9954243;29;20232;-79
2024/03/12 14:57:47;;;;;;;20.93;13.20;;;;;9.60;100796.00;;;;9951864;29;20612;-79
2024/03/12 15:02:49;;;;;;;21.73;14.43;;;;;9.60;100784.00;;;;9985248;29;20684;-80
2024/03/12 15:07:50;;;;;;;19.70;12.83;;;;;9.70;100786.00;;;;9966701;29;20667;-80
2024/03/12 15:12:52;;;;;;;20.00;13.27;;;;;9.70;100792.00;;;;9962489;29;20237;-79
2024/03/12 15:17:55;;;;;;;18.17;12.50;;;;;9.60;100787.00;;;;9978965;29;20256;-80
2024/03/12 15:22:58;;;;;;;19.47;11.47;;;;;9.60;100793.00;;;;9955235;29;20267;-80
2024/03/12 15:27:59;;;;;;;15.23;10.53;;;;;9.60;100771.00;;;;9949698;29;20229;-79
2024/03/12 15:33:01;;;;;;;15.13;10.13;;;;;9.50;100760.00;;;;9968346;29;20245;-79
2024/03/12 15:38:04;;;;;;;11.17;8.13;;;;;9.40;100752.00;;;;9976031;29;20226;-79
2024/03/12 15:43:09;;;;;;;6.87;5.20;;;;;9.20;100737.00;;;;9956538;29;20238;-79
2024/03/12 15:48:11;;;;;;;10.33;6.37;;;;;9.20;100736.00;;;;9939660;29;20226;-77
2024/03/12 15:53:12;;;;;;;11.40;6.50;;;;;9.20;100734.00;;;;9983079;29;20301;-77
2024/03/12 15:58:13;;;;;;;8.13;5.80;;;;;9.10;100731.00;;;;9953114;29;20254;-76
2024/03/12 16:03:15;;;;;;;8.97;4.83;;;;;9.10;100721.00;;;;9957041;29;20242;-76
2024/03/12 16:08:16;;;;;;;7.63;5.37;;;;;9.10;100716.00;;;;9988146;29;20233;-76
2024/03/12 16:13:17;;;;;;;6.47;4.27;;;;;9.00;100714.00;;;;9968176;29;20599;-76
2024/03/12 16:18:19;;;;;;;8.60;3.80;;;;;8.90;100704.00;;;;9956069;29;20881;-76
2024/03/12 16:23:20;;;;;;;6.87;4.97;;;;;8.90;100696.00;;;;9974230;29;20233;-76
2024/03/12 16:28:22;;;;;;;8.07;4.30;;;;;9.00;100697.00;;;;9980519;29;20842;-76
2024/03/12 16:33:23;;;;;;;5.07;3.97;;;;;9.00;100693.00;;;;9964023;29;20646;-75
2024/03/12 16:38:24;;;;;;;7.30;3.30;;;;;9.10;100678.00;;;;9979558;29;20939;-76
2024/03/12 16:43:25;;;;;;;6.03;3.87;;;;;9.00;100684.00;;;;9984696;29;20317;-76
2024/03/12 16:48:27;;;;;;;3.60;3.10;;;;;9.00;100679.00;;;;9997994;29;20233;-77
2024/03/12 16:53:33;;;;;;;4.60;3.10;;;;;8.90;100681.00;;;;10015909;29;20592;-77
2024/03/12 16:58:35;;;;;;;4.40;2.83;;;;;8.90;100681.00;;;;9974051;29;20252;-86
2024/03/12 17:03:37;;;;;;;8.53;3.30;;;;;8.90;100682.00;;;;9990814;29;20229;-86
2024/03/12 17:08:38;;;;;;;4.37;3.27;;;;;8.80;100672.00;;;;9992552;29;20236;-88
2024/03/12 17:13:40;;;;;;;5.00;3.43;;;;;8.80;100678.00;;;;9990110;29;20529;-86
2024/03/12 17:18:42;;;;;;;3.30;2.70;;;;;8.80;100681.00;;;;10015624;29;20250;-88
2024/03/12 17:23:44;;;;;;;3.83;3.43;;;;;8.80;100674.00;;;;10020032;29;20233;-86
2024/03/12 17:28:45;;;;;;;4.27;3.43;;;;;8.80;100661.00;;;;9989016;29;20237;-86
2024/03/12 17:33:47;;;;;;;4.40;3.70;;;;;8.80;100670.00;;;;9985100;29;20752;-85
2024/03/12 17:38:51;;;;;;;4.33;3.80;;;;;8.80;100672.00;;;;9997991;29;20823;-85
2024/03/12 17:43:53;;;;;;;5.57;4.07;;;;;8.80;100675.00;;;;9991673;29;20229;-87
2024/03/12 17:48:59;;;;;;;5.70;3.80;;;;;8.90;100671.00;;;;9988753;29;20213;-87
2024/03/12 17:54:02;;;;;;;4.73;4.23;;;;;8.90;100680.00;;;;9988856;29;20225;-86
2024/03/12 17:59:03;;;;;;;5.00;4.50;;;;;8.90;100689.00;;;;9974113;29;20238;-87
2024/03/12 18:04:05;;;;;;;5.37;4.47;;;;;9.00;100682.00;;;;9980940;29;20229;-88
2024/03/12 18:09:14;;;;;;;5.23;3.80;;;;;9.00;100695.00;;;;10024211;29;20641;-76
2024/03/12 18:14:15;;;;;;;6.13;5.53;;;;;9.10;100700.00;;;;9972504;29;20249;-75
2024/03/12 18:19:18;;;;;;;6.53;4.40;;;;;9.10;100700.00;;;;9973419;29;20802;-76
2024/03/12 18:24:20;;;;;;;7.07;6.07;;;;;9.10;100703.00;;;;9952965;29;20234;-77
2024/03/12 18:29:21;;;;;;;9.70;8.30;;;;;9.10;100688.00;;;;9971273;29;20226;-76
2024/03/12 18:34:23;;;;;;;6.57;5.43;;;;;9.10;100697.00;;;;9962574;29;22016;-75
2024/03/12 18:39:24;;;;;;;6.83;5.60;;;;;9.10;100688.00;;;;9971951;29;20944;-77
2024/03/12 18:44:26;;;;;;;6.40;5.80;;;;;9.20;100698.00;;;;9968687;29;20619;-76
2024/03/12 18:49:28;;;;;;;9.10;6.87;;;;;9.20;100709.00;;;;9969820;29;20922;-76
2024/03/12 18:54:30;;;;;;;7.50;6.67;;;;;9.20;100694.00;;;;9981758;29;20249;-77
2024/03/12 18:59:31;;;;;;;13.47;10.53;;;;;9.30;100696.00;;;;9983699;29;20317;-76
2024/03/12 19:04:35;;;;;;;8.87;7.83;;;;;9.40;100693.00;;;;9954123;29;20237;-77
2024/03/12 19:09:37;;;;;;;10.50;8.17;;;;;9.50;100693.00;;;;9966791;29;20229;-75
2024/03/12 19:14:40;;;;;;;11.73;8.30;;;;;9.50;100689.00;;;;9964393;29;20291;-76
2024/03/12 19:19:42;;;;;;;12.57;8.63;;;;;9.60;100693.00;;;;9971198;29;20893;-80
2024/03/12 19:24:44;;;;;;;11.10;9.20;;;;;9.70;100696.00;;;;9971169;29;20256;-81
2024/03/12 19:29:45;;;;;;;11.70;9.43;;;;;9.70;100688.00;;;;9975230;29;20228;-80
2024/03/12 19:34:47;;;;;;;11.30;9.87;;;;;9.80;100685.00;;;;9962750;29;20257;-79
2024/03/12 19:39:49;;;;;;;15.67;10.03;;;;;9.80;100676.00;;;;9976393;29;20748;-79
2024/03/12 19:44:52;;;;;;;11.43;9.67;;;;;9.90;100674.00;;;;9980741;29;20245;-79
2024/03/12 19:49:54;;;;;;;14.27;11.27;;;;;9.90;100694.00;;;;9964233;29;20257;-80
2024/03/12 19:54:55;;;;;;;11.87;10.10;;;;;9.90;100682.00;;;;9958853;29;20229;-79
2024/03/12 19:59:57;;;;;;;18.27;12.43;;;;;10.00;100694.00;;;;9961338;29;20848;-79
2024/03/12 20:04:58;;;;;;;14.40;12.60;;;;;10.10;100692.00;;;;9965652;29;20237;-79
2024/03/12 20:09:59;;;;;;;17.67;12.83;;;;;10.20;100694.00;;;;9951590;29;20229;-82
2024/03/12 20:15:04;;;;;;;14.27;12.77;;;;;10.20;100694.00;;;;9960272;29;20217;-80
2024/03/12 20:20:09;;;;;;;20.40;12.43;;;;;10.20;100698.00;;;;9963066;29;20226;-79
2024/03/12 20:25:11;;;;;;;16.87;12.03;;;;;10.30;100710.00;;;;9971328;29;20866;-78
2024/03/12 20:30:14;;;;;;;22.37;13.27;;;;;10.30;100709.00;;;;9965507;29;20240;-85
2024/03/12 20:35:15;;;;;;;18.40;12.47;;;;;10.40;100706.00;;;;9983398;29;21071;-84
2024/03/12 20:40:18;;;;;;;20.13;11.33;;;;;10.40;100706.00;;;;10005965;29;20225;-85
2024/03/12 20:45:23;;;;;;;18.27;11.67;;;;;10.50;100713.00;;;;9976643;29;20297;-85
2024/03/12 20:50:24;;;;;;;21.77;11.40;;;;;10.50;100720.00;;;;9977247;29;20225;-85
2024/03/12 20:55:25;;;;;;;23.37;11.73;;;;;10.60;100726.00;;;;9979120;29;20324;-83
2024/03/12 21:00:28;;;;;;;21.87;11.10;;;;;10.60;100731.00;;;;9985013;29;20236;-85
2024/03/12 21:05:30;;;;;;;21.60;12.40;;;;;10.60;100729.00;;;;9960062;29;20245;-85
2024/03/12 21:10:31;;;;;;;27.27;10.33;;;;;10.60;100737.00;;;;9967751;29;20294;-85
2024/03/12 21:15:33;;;;;;;25.27;12.43;;;;;10.60;100743.00;;;;10005052;29;20257;-85
2024/03/12 21:20:35;;;;;;;18.60;9.73;;;;;10.70;100745.00;;;;9969304;29;20233;-86
2024/03/12 21:25:36;;;;;;;17.33;9.77;;;;;10.70;100751.00;;;;9962380;29;20301;-84
2024/03/12 21:30:39;;;;;;;22.30;9.73;;;;;10.70;100750.00;;;;9996316;29;20237;-84
2024/03/12 21:35:41;;;;;;;18.77;9.00;;;;;10.70;100741.00;;;;9971083;29;20257;-84
2024/03/12 21:40:42;;;;;;;23.13;9.27;;;;;10.70;100747.00;;;;9969161;29;20285;-86
2024/03/12 21:45:45;;;;;;;18.03;9.07;;;;;10.70;100746.00;;;;9954394;29;20233;-87
2024/03/12 21:50:46;;;;;;;12.63;7.83;;;;;10.70;100763.00;;;;9998287;29;20240;-87
2024/03/12 21:55:48;;;;;;;23.40;8.47;;;;;10.70;100764.00;;;;9998002;29;20910;-89
2024/03/12 22:00:52;;;;;;;17.70;8.87;;;;;10.70;100751.00;;;;9961400;29;20250;-90
2024/03/12 22:05:54;;;;;;;18.70;8.00;;;;;10.70;100756.00;;;;9993238;29;20233;-89
2024/03/12 22:10:56;;;;;;;16.57;7.77;;;;;10.70;100764.00;;;;9994408;29;20237;-89
2024/03/12 22:15:58;;;;;;;14.83;8.20;;;;;10.70;100766.00;;;;9999815;29;20226;-88
2024/03/12 22:21:02;;;;;;;19.73;9.23;;;;;10.70;100773.00;;;;10001782;29;20233;-87
2024/03/12 22:26:06;;;;;;;19.30;8.50;;;;;10.70;100777.00;;;;9981311;29;20234;-86
2024/03/12 22:31:09;;;;;;;13.37;6.77;;;;;10.70;100786.00;;;;9985899;29;20265;-87
2024/03/12 22:36:14;;;;;;;14.50;6.93;;;;;10.70;100782.00;;;;9953210;29;20241;-87
2024/03/12 22:41:15;;;;;;;16.20;7.77;;;;;10.70;100782.00;;;;9950267;29;20249;-87
2024/03/12 22:46:16;;;;;;;13.97;6.77;;;;;10.70;100779.00;;;;9974995;29;20245;-88
2024/03/12 22:51:18;;;;;;;20.60;7.83;;;;;10.70;100781.00;;;;9967515;29;20229;-77
2024/03/12 22:56:20;;;;;;;18.30;8.00;;;;;10.70;100785.00;;;;9983118;29;20344;-77
2024/03/12 23:01:24;;;;;;;18.10;7.57;;;;;10.70;100797.00;;;;9948005;29;20316;-78
2024/03/12 23:06:26;;;;;;;16.70;6.53;;;;;10.70;100792.00;;;;9976642;29;20792;-79
2024/03/12 23:11:27;;;;;;;15.03;6.63;;;;;10.70;100789.00;;;;9962113;29;20240;-78
2024/03/12 23:16:37;;;;;;;13.67;6.17;;;;;10.70;100792.00;;;;9967207;29;20221;-78
2024/03/12 23:21:38;;;;;;;10.90;5.97;;;;;10.60;100801.00;;;;9963421;29;20237;-77
2024/03/12 23:26:40;;;;;;;13.43;5.77;;;;;10.60;100803.00;;;;9968424;29;20588;-78
2024/03/12 23:31:42;;;;;;;10.33;5.07;;;;;10.60;100797.00;;;;9990395;29;20565;-77
2024/03/12 23:36:44;;;;;;;12.23;5.73;;;;;10.60;100805.00;;;;9943351;29;20815;-78
2024/03/12 23:41:45;;;;;;;12.30;5.10;;;;;10.60;100800.00;;;;9995673;29;20233;-77
2024/03/12 23:46:46;;;;;;;11.67;5.80;;;;;10.60;100811.00;;;;9966086;29;20234;-75
2024/03/12 23:51:48;;;;;;;11.20;5.77;;;;;10.60;100811.00;;;;9964035;29;20225;-77
2024/03/12 23:56:51;;;;;;;11.20;5.00;;;;;10.60;100806.00;;;;9997352;29;20648;-76
